MST,Max TemperatureF,Mean TemperatureF,Min TemperatureF,Max Dew PointF,MeanDew PointF,Min DewpointF,Max Humidity, Mean Humidity, Min Humidity, Max Sea Level PressureIn, Mean Sea Level PressureIn, Min Sea Level PressureIn, Max VisibilityMiles, Mean VisibilityMiles, Min VisibilityMiles, Max Wind SpeedMPH, Mean Wind SpeedMPH, Max Gust SpeedMPH,PrecipitationIn, CloudCover, Events, WindDirDegrees
2013-9-1,88,80,70,66,62,58,78,57,33,30.04,29.90,29.81,10,10,2,9,2,,0.03,2,Rain-Thunderstorm,329
2013-9-2,93,81,69,63,60,54,81,50,19,29.97,29.89,29.79,10,10,10,7,4,,0.00,0,,25
2013-9-3,95,84,72,58,54,50,55,36,16,29.96,29.89,29.83,10,10,10,9,4,,0.00,0,,209
2013-9-4,97,86,75,57,53,47,47,32,13,30.09,29.92,29.83,10,10,10,17,3,25,0.00,1,Thunderstorm,345
2013-9-5,96,84,71,56,52,46,57,34,12,29.99,29.93,29.87,10,10,10,8,5,,0.00,1,,239
2013-9-6,96,84,71,51,48,44,46,30,12,29.99,29.90,29.83,10,10,10,9,4,,0.00,0,,247
2013-9-7,95,82,70,62,51,46,76,38,21,30.01,29.89,29.77,10,10,4,18,4,26,0.08,2,Rain-Thunderstorm,246
2013-9-8,75,70,66,66,63,58,88,80,63,30.09,29.93,29.84,10,9,1,10,4,,0.47,7,Rain-Thunderstorm,348
2013-9-9,73,68,64,63,62,60,90,81,68,30.00,29.87,29.77,10,9,2,8,1,,0.04,7,Rain-Thunderstorm,74
2013-9-10,79,71,63,63,60,57,94,83,52,29.97,29.86,29.76,10,9,0,15,5,24,0.51,7,Rain-Thunderstorm,334
2013-9-11,77,69,61,63,59,57,94,83,55,30.10,30.00,29.87,10,8,1,13,3,23,0.12,6,Rain-Thunderstorm,327
2013-9-12,79,68,57,59,56,54,90,69,34,30.16,29.96,29.86,10,10,10,6,2,,0.00,1,,309
2013-9-13,82,72,61,56,53,50,81,52,23,29.87,29.78,29.69,10,10,10,7,2,,0.00,1,,339
2013-9-14,86,75,64,56,54,48,73,49,20,29.96,29.77,29.65,10,10,10,18,4,24,0.00,3,Thunderstorm,71
2013-9-15,84,73,62,58,55,48,78,55,22,29.91,29.86,29.78,10,10,10,7,2,,0.00,0,,16
2013-9-16,87,76,64,57,53,48,73,47,19,29.97,29.88,29.80,10,10,10,8,2,,0.00,0,,42
2013-9-17,91,80,69,55,50,44,57,36,12,29.83,29.72,29.59,10,10,10,9,4,22,0.00,2,,208
2013-9-18,91,80,69,51,39,25,47,24,6,29.72,29.65,29.59,10,10,10,14,6,28,0.00,0,,226
2013-9-19,84,73,62,39,34,30,41,24,7,29.86,29.81,29.74,10,10,10,9,4,,0.00,0,,33
2013-9-20,88,74,60,39,34,29,37,23,8,29.91,29.82,29.74,10,10,10,9,3,,0.00,0,,328
2013-9-21,89,76,63,46,42,37,45,29,12,29.82,29.70,29.57,10,10,10,16,6,26,0.00,0,,202
2013-9-22,78,70,59,49,36,18,46,29,10,29.75,29.56,29.45,10,10,9,21,12,38,0.00,2,,220
2013-9-23,78,66,53,37,32,27,51,29,8,29.96,29.89,29.76,10,10,10,9,4,,0.00,0,,120
2013-9-24,82,68,55,36,32,27,45,26,8,30.02,29.88,29.70,10,10,10,8,4,,0.00,0,,245
2013-9-25,84,73,62,32,28,22,28,18,6,29.71,29.52,29.39,10,10,10,21,10,32,0.00,0,,191
2013-9-26,79,69,57,36,29,17,35,22,6,29.68,29.50,29.42,10,10,10,21,12,34,0.00,2,,212
2013-9-27,68,59,50,26,22,19,38,24,8,30.06,29.89,29.69,10,10,10,12,6,21,0.00,1,,294
2013-9-28,70,58,46,29,24,22,44,27,8,30.20,30.12,30.07,10,10,10,8,2,,0.00,0,,43
2013-9-29,77,62,48,33,26,19,41,25,8,30.15,30.03,29.93,10,10,10,7,2,,0.00,0,,53
2013-9-30,82,67,52,27,24,19,34,18,4,29.97,29.88,29.79,10,10,10,7,4,,0.00,0,,275